Cotes De Bretagne — FW3973 — position and weather

sailwx.info

Track history (hours):
 
Tides and Currents Weather Stations Pressure Air Temp Water Temp Dewpoint Dewpoint Depression Visibility Wind Speed Wind Dir Waves Ship Positions

Cotes De Bretagne

Last reported at 2014-Dec-14 10:10 UTC. Time now 2014-Dec-21 06:53 UTC.
Position N 47°17' W 002°12'.

Length 75 m; draft 4.2 m.

Type: Dredging. MMSI: 227003850.

Date/timePositionNaut miles runAvg speedWind from/ knotsBaromVisibWave heightAir tempDewpointWater temp
2014-Dec-14 10:10N 47°17' W 002°12'0 0.0
2014-Dec-14 09:14N 47°17' W 002°12'  
2014-Dec-07 08:20N 47°28' W 003°10'8 9.7
2014-Dec-07 07:33N 47°35' W 003°16'10 9.9
2014-Dec-07 06:33N 47°44' W 003°21'2 1.5
2014-Dec-07 05:33N 47°45' W 003°19'0 0.0
2014-Dec-07 04:33N 47°45' W 003°19'0 0.0
2014-Dec-07 03:33N 47°45' W 003°19'1 1.4
2014-Dec-07 02:33N 47°44' W 003°21'0 0.0
2014-Dec-07 01:33N 47°44' W 003°21'0 0.0
2014-Dec-07 00:33N 47°44' W 003°21'0 0.0
2014-Dec-06 23:33N 47°44' W 003°21'0 0.0
2014-Dec-06 22:33N 47°44' W 003°21'0 0.0
2014-Dec-06 21:33N 47°44' W 003°21'1 0.8
2014-Dec-06 20:33N 47°44' W 003°22'7 6.5
2014-Dec-06 19:33N 47°37' W 003°20'10 8.9
2014-Dec-06 18:25N 47°29' W 003°12'64 8.2
2014-Dec-06 10:33N 46°41' W 002°09'8 8.2
2014-Dec-06 09:33N 46°35' W 002°01'8 8.1
2014-Dec-06 08:33N 46°29' W 001°53'8 8.2
2014-Dec-06 07:33N 46°23' W 001°45'0 0.3
2014-Dec-06 06:34N 46°22' W 001°45'0 0.2
2014-Dec-06 05:33N 46°22' W 001°45'3 2.6
2014-Dec-06 04:33N 46°24' W 001°48'1111.0
2014-Dec-06 03:33N 46°32' W 001°59'1111.2
2014-Dec-06 02:33N 46°41' W 002°10'6710.8
2014-Dec-05 20:21N 47°28' W 003°20'1210.4
2014-Dec-05 19:10N 47°35' W 003°34'32 8.8
2014-Dec-05 15:33N 47°58' W 004°06'37 5.8
2014-Dec-05 09:06N 47°32' W 003°27'5 9.5
2014-Dec-05 08:33N 47°29' W 003°21'1 0.1
2014-Dec-04 19:23N 47°28' W 003°19'1210.5
2014-Dec-04 18:17N 47°35' W 003°33'2910.6
2014-Dec-04 15:33N 47°53' W 004°07'  
Track history (hours):
 
Tides and Currents Weather Stations Pressure Air Temp Water Temp Dewpoint Dewpoint Depression Visibility Wind Speed Wind Dir Waves Ship Positions

Cotes De Bretagne

Last reported at 2014-Dec-14 10:10 UTC. Time now 2014-Dec-21 06:53 UTC.
Position N 47°17' W 002°12'.

Length 75 m; draft 4.2 m.

Type: Dredging. MMSI: 227003850.

Date/timePositionNaut miles runAvg speedWind from/ knotsBaromVisibWave heightAir tempDewpointWater temp
2014-Dec-14 10:10N 47°17' W 002°12'0 0.0
2014-Dec-14 09:14N 47°17' W 002°12'  
2014-Dec-07 08:20N 47°28' W 003°10'8 9.7
2014-Dec-07 07:33N 47°35' W 003°16'10 9.9
2014-Dec-07 06:33N 47°44' W 003°21'2 1.5
2014-Dec-07 05:33N 47°45' W 003°19'0 0.0
2014-Dec-07 04:33N 47°45' W 003°19'0 0.0
2014-Dec-07 03:33N 47°45' W 003°19'1 1.4
2014-Dec-07 02:33N 47°44' W 003°21'0 0.0
2014-Dec-07 01:33N 47°44' W 003°21'0 0.0
2014-Dec-07 00:33N 47°44' W 003°21'0 0.0
2014-Dec-06 23:33N 47°44' W 003°21'0 0.0
2014-Dec-06 22:33N 47°44' W 003°21'0 0.0
2014-Dec-06 21:33N 47°44' W 003°21'1 0.8
2014-Dec-06 20:33N 47°44' W 003°22'7 6.5
2014-Dec-06 19:33N 47°37' W 003°20'10 8.9
2014-Dec-06 18:25N 47°29' W 003°12'64 8.2
2014-Dec-06 10:33N 46°41' W 002°09'8 8.2
2014-Dec-06 09:33N 46°35' W 002°01'8 8.1
2014-Dec-06 08:33N 46°29' W 001°53'8 8.2
2014-Dec-06 07:33N 46°23' W 001°45'0 0.3
2014-Dec-06 06:34N 46°22' W 001°45'0 0.2
2014-Dec-06 05:33N 46°22' W 001°45'3 2.6
2014-Dec-06 04:33N 46°24' W 001°48'1111.0
2014-Dec-06 03:33N 46°32' W 001°59'1111.2
2014-Dec-06 02:33N 46°41' W 002°10'6710.8
2014-Dec-05 20:21N 47°28' W 003°20'1210.4
2014-Dec-05 19:10N 47°35' W 003°34'32 8.8
2014-Dec-05 15:33N 47°58' W 004°06'37 5.8
2014-Dec-05 09:06N 47°32' W 003°27'5 9.5
2014-Dec-05 08:33N 47°29' W 003°21'1 0.1
2014-Dec-04 19:23N 47°28' W 003°19'1210.5
2014-Dec-04 18:17N 47°35' W 003°33'2910.6
2014-Dec-04 15:33N 47°53' W 004°07'  

Dump ship's entire track history